createdAt,value
2023-03-04T00:01:47.038Z,37.27
2023-03-04T00:03:48.734Z,38.30
2023-03-04T00:05:51.648Z,36.90
2023-03-04T00:07:53.416Z,37.43
2023-03-04T00:09:55.289Z,38.57
2023-03-04T00:11:57.021Z,37.67
2023-03-04T00:13:58.804Z,38.83
2023-03-04T00:16:05.337Z,38.20
2023-03-04T00:18:07.163Z,37.23
2023-03-04T00:20:09.552Z,38.20
2023-03-04T00:22:11.430Z,38.60
2023-03-04T00:24:13.179Z,38.10
2023-03-04T00:26:15.696Z,35.33
2023-03-04T00:28:18.713Z,38.03
2023-03-04T00:30:22.578Z,37.37
2023-03-04T00:32:24.410Z,36.00
2023-03-04T00:34:26.139Z,37.47
2023-03-04T00:36:27.877Z,36.80
2023-03-04T00:38:30.879Z,37.87
2023-03-04T00:40:35.286Z,35.87
2023-03-04T00:42:37.161Z,36.07
2023-03-04T00:44:38.979Z,37.90
2023-03-04T00:46:44.293Z,35.40
2023-03-04T00:48:46.062Z,36.70
2023-03-04T00:50:49.878Z,35.93
2023-03-04T00:52:51.702Z,38.07
2023-03-04T00:54:55.308Z,36.63
2023-03-04T00:56:56.993Z,36.73
2023-03-04T00:59:00.910Z,36.07
2023-03-04T01:01:02.669Z,36.07
2023-03-04T01:03:04.570Z,35.83
2023-03-04T01:05:07.050Z,35.53
2023-03-04T01:07:09.103Z,35.27
2023-03-04T01:09:10.793Z,36.67
2023-03-04T01:11:12.801Z,36.43
2023-03-04T01:13:17.665Z,37.10
2023-03-04T01:15:19.455Z,36.00
2023-03-04T01:17:24.249Z,38.00
2023-03-04T01:19:26.962Z,35.07
2023-03-04T01:21:28.770Z,36.53
2023-03-04T01:23:30.664Z,38.07
2023-03-04T01:25:32.517Z,36.73
2023-03-04T01:27:36.797Z,37.07
2023-03-04T01:29:38.540Z,35.70
2023-03-04T01:31:45.717Z,35.77
2023-03-04T01:33:47.722Z,37.73
2023-03-04T01:35:49.390Z,36.33
2023-03-04T01:37:52.323Z,36.07
2023-03-04T01:39:54.105Z,36.47
2023-03-04T01:41:56.099Z,36.23
2023-03-04T01:44:02.208Z,40.03
2023-03-04T01:46:04.625Z,37.87
2023-03-04T01:48:09.085Z,38.63
2023-03-04T01:50:19.763Z,36.63
2023-03-04T01:52:21.727Z,37.07
2023-03-04T01:54:23.613Z,35.43
2023-03-04T01:56:36.348Z,37.50
2023-03-04T01:58:38.038Z,35.70
2023-03-04T02:00:41.994Z,36.83
2023-03-04T02:02:45.632Z,37.50
2023-03-04T02:04:47.353Z,37.43
2023-03-04T02:06:50.179Z,36.90
2023-03-04T02:08:51.941Z,35.77
2023-03-04T02:10:54.369Z,36.17
2023-03-04T02:12:57.313Z,38.10
2023-03-04T02:14:59.079Z,37.73
2023-03-04T02:17:00.992Z,36.63
2023-03-04T02:19:07.721Z,38.00
2023-03-04T02:21:13.456Z,36.93
2023-03-04T02:23:48.081Z,35.70
2023-03-04T02:26:20.878Z,35.47
2023-03-04T02:28:25.260Z,35.97
2023-03-04T02:30:27.143Z,35.70
2023-03-04T02:32:28.932Z,36.73
2023-03-04T02:34:35.111Z,37.37
2023-03-04T02:36:37.138Z,33.20
2023-03-04T02:38:38.821Z,35.93
2023-03-04T02:40:43.192Z,36.07
2023-03-04T02:42:45.744Z,37.90
2023-03-04T02:44:49.199Z,36.77
2023-03-04T02:46:54.845Z,36.87
2023-03-04T02:48:56.710Z,38.43
2023-03-04T02:50:58.403Z,38.10
2023-03-04T02:53:00.496Z,39.07
2023-03-04T02:55:02.386Z,37.90
2023-03-04T02:57:08.010Z,36.57
2023-03-04T02:59:11.519Z,36.60
2023-03-04T03:01:16.356Z,37.80
2023-03-04T03:03:19.247Z,36.03
2023-03-04T03:05:21.091Z,36.93
2023-03-04T03:07:24.334Z,36.00
2023-03-04T03:09:26.019Z,35.50
2023-03-04T03:11:27.676Z,35.13
2023-03-04T03:13:31.150Z,36.27
2023-03-04T03:15:32.883Z,36.83
2023-03-04T03:17:34.705Z,36.00
2023-03-04T03:19:37.816Z,34.50
2023-03-04T03:21:41.467Z,36.43
2023-03-04T03:23:43.384Z,37.17
2023-03-04T03:25:45.048Z,36.57
2023-03-04T03:27:46.767Z,37.03
2023-03-04T03:29:49.156Z,37.30
2023-03-04T03:31:50.856Z,34.57
2023-03-04T03:33:54.182Z,35.87
2023-03-04T03:35:57.236Z,35.73
2023-03-04T03:37:59.098Z,36.60
2023-03-04T03:40:03.067Z,35.33
2023-03-04T03:42:04.892Z,36.23
2023-03-04T03:44:06.644Z,37.13
2023-03-04T03:46:08.416Z,36.67
2023-03-04T03:48:13.221Z,37.93
2023-03-04T03:50:15.643Z,36.40
2023-03-04T03:52:17.366Z,37.47
2023-03-04T03:54:19.045Z,37.87
2023-03-04T03:56:21.099Z,34.63
2023-03-04T03:58:23.165Z,34.43
2023-03-04T04:00:27.694Z,31.43
2023-03-04T04:02:29.735Z,30.53
2023-03-04T04:04:31.626Z,29.37
2023-03-04T04:06:35.799Z,30.67
2023-03-04T04:08:37.516Z,30.03
2023-03-04T04:10:39.272Z,30.00
2023-03-04T04:12:41.082Z,29.77
2023-03-04T04:14:43.238Z,32.37
2023-03-04T04:16:45.001Z,28.67
2023-03-04T04:18:46.734Z,31.20
2023-03-04T04:20:48.413Z,29.53
2023-03-04T04:22:50.083Z,23.33
2023-03-04T04:24:51.739Z,21.83
2023-03-04T04:26:53.625Z,24.30
2023-03-04T04:28:55.329Z,24.13
2023-03-04T04:30:57.041Z,21.87
2023-03-04T04:33:01.670Z,20.13
2023-03-04T04:35:03.522Z,20.87
2023-03-04T04:37:05.433Z,18.23
2023-03-04T04:39:07.088Z,22.07
2023-03-04T04:41:24.221Z,25.10
2023-03-04T04:43:26.093Z,25.03
2023-03-04T04:45:27.911Z,20.83
2023-03-04T04:47:29.589Z,21.50
2023-03-04T04:49:31.257Z,20.10
2023-03-04T04:51:34.028Z,20.13
2023-03-04T04:53:39.196Z,21.80
2023-03-04T04:55:43.952Z,21.10
2023-03-04T04:57:45.781Z,21.17
2023-03-04T04:59:48.013Z,20.23
2023-03-04T05:01:49.650Z,21.80
2023-03-04T05:03:53.211Z,19.93
2023-03-04T05:05:57.039Z,20.63
2023-03-04T05:07:58.946Z,18.47
2023-03-04T05:10:00.630Z,19.80
2023-03-04T05:12:02.330Z,20.17
2023-03-04T05:14:06.212Z,18.03
2023-03-04T05:16:11.514Z,18.33
2023-03-04T05:18:13.341Z,18.53
2023-03-04T05:20:17.727Z,17.30
2023-03-04T05:22:19.457Z,18.27
2023-03-04T05:24:25.109Z,18.83
2023-03-04T05:26:26.897Z,18.57
2023-03-04T05:28:28.747Z,19.90
2023-03-04T05:30:30.452Z,19.37
2023-03-04T05:32:32.303Z,19.03
2023-03-04T05:34:36.572Z,18.73
2023-03-04T05:36:38.301Z,18.23
2023-03-04T05:38:40.029Z,22.10
2023-03-04T05:40:43.256Z,20.90
2023-03-04T05:42:45.484Z,20.33
2023-03-04T05:44:47.188Z,20.20
2023-03-04T05:46:48.893Z,21.93
2023-03-04T05:48:50.939Z,20.73
2023-03-04T05:51:00.963Z,20.97
2023-03-04T05:53:02.862Z,22.30
2023-03-04T05:55:04.919Z,22.43
2023-03-04T05:57:06.625Z,21.73
2023-03-04T05:59:10.716Z,21.57
2023-03-04T06:01:12.448Z,21.20
2023-03-04T06:03:18.567Z,21.90
2023-03-04T06:05:21.820Z,21.93
2023-03-04T06:07:23.537Z,20.50
2023-03-04T06:09:25.297Z,20.13
2023-03-04T06:11:29.438Z,21.63
2023-03-04T06:13:31.443Z,21.87
2023-03-04T06:15:33.298Z,22.33
2023-03-04T06:17:37.012Z,22.07
2023-03-04T06:19:43.978Z,21.47
2023-03-04T06:21:46.916Z,20.90
2023-03-04T06:23:48.752Z,21.40
2023-03-04T06:25:57.833Z,20.07
2023-03-04T06:27:59.478Z,22.30
2023-03-04T06:30:01.934Z,20.63
2023-03-04T06:32:05.912Z,21.10
2023-03-04T06:34:10.030Z,21.67
2023-03-04T06:36:17.124Z,20.67
2023-03-04T06:38:24.481Z,19.77
2023-03-04T06:40:26.313Z,20.97
2023-03-04T06:42:32.684Z,16.40
2023-03-04T06:44:34.363Z,16.10
2023-03-04T06:46:43.437Z,15.50
2023-03-04T06:48:45.250Z,15.53
2023-03-04T06:50:48.088Z,15.63
2023-03-04T06:52:52.247Z,15.70
2023-03-04T06:54:53.998Z,14.27
2023-03-04T06:56:55.675Z,12.53
2023-03-04T06:58:57.570Z,12.23
2023-03-04T07:01:29.744Z,12.10
2023-03-04T07:03:31.540Z,12.07
2023-03-04T07:05:33.364Z,13.40
2023-03-04T07:07:37.692Z,13.50
2023-03-04T07:09:39.657Z,15.17
2023-03-04T07:11:41.603Z,14.83
2023-03-04T07:13:43.551Z,14.77
2023-03-04T07:15:49.005Z,15.00
2023-03-04T07:17:50.867Z,15.00
2023-03-04T07:19:53.037Z,14.50
2023-03-04T07:21:54.905Z,14.13
2023-03-04T07:23:59.591Z,15.50
2023-03-04T07:26:01.293Z,15.10
2023-03-04T07:28:03.096Z,15.37
2023-03-04T07:30:06.201Z,15.60
2023-03-04T07:32:09.503Z,14.40
2023-03-04T07:34:14.254Z,15.23
2023-03-04T07:36:16.298Z,14.77
2023-03-04T07:38:18.354Z,13.70
2023-03-04T07:40:21.141Z,12.77
2023-03-04T07:42:25.667Z,14.03
2023-03-04T07:44:34.330Z,13.30
2023-03-04T07:46:36.205Z,12.10
2023-03-04T07:48:38.366Z,12.90
2023-03-04T07:50:40.052Z,14.70
2023-03-04T07:52:45.832Z,13.93
2023-03-04T07:54:47.544Z,13.17
2023-03-04T07:56:49.399Z,12.23
2023-03-04T07:58:56.131Z,11.80
2023-03-04T08:00:57.988Z,12.00
2023-03-04T08:02:59.649Z,12.43
2023-03-04T08:05:02.853Z,12.40
2023-03-04T08:07:04.574Z,12.10
2023-03-04T08:09:08.058Z,11.50
2023-03-04T08:11:19.439Z,11.07
2023-03-04T08:13:21.121Z,11.53
2023-03-04T08:15:22.779Z,11.83
2023-03-04T08:17:24.490Z,11.33
2023-03-04T08:19:26.613Z,10.37
2023-03-04T08:21:33.895Z,11.03
2023-03-04T08:23:38.148Z,11.03
2023-03-04T08:25:41.056Z,10.60
2023-03-04T08:27:42.845Z,10.07
2023-03-04T08:29:44.555Z,10.87
2023-03-04T08:31:49.981Z,10.93
2023-03-04T08:33:54.606Z,9.87
2023-03-04T08:35:58.485Z,9.97
2023-03-04T08:38:02.690Z,10.00
2023-03-04T08:40:04.842Z,8.90
2023-03-04T08:42:06.636Z,9.43
2023-03-04T08:44:10.308Z,8.93
2023-03-04T08:46:12.076Z,8.97
2023-03-04T08:48:13.865Z,8.97
2023-03-04T08:50:17.730Z,9.23
2023-03-04T08:52:19.544Z,9.67
2023-03-04T08:54:24.249Z,8.57
2023-03-04T08:56:25.923Z,8.70
2023-03-04T08:58:27.637Z,9.20
2023-03-04T09:00:32.565Z,8.83
2023-03-04T09:02:41.509Z,8.13
2023-03-04T09:04:43.197Z,9.33
2023-03-04T09:06:44.861Z,8.40
2023-03-04T09:08:49.203Z,8.87
2023-03-04T09:10:54.329Z,8.43
2023-03-04T09:12:56.096Z,9.10
2023-03-04T09:15:10.588Z,8.47
2023-03-04T09:17:13.470Z,9.10
2023-03-04T09:19:15.529Z,8.80
2023-03-04T09:21:17.645Z,9.40
2023-03-04T09:23:19.879Z,8.77
2023-03-04T09:25:22.163Z,8.83
2023-03-04T09:27:23.928Z,9.77
2023-03-04T09:29:31.900Z,8.43
2023-03-04T09:31:33.845Z,8.87
2023-03-04T09:33:35.616Z,8.60
2023-03-04T09:35:37.491Z,7.50
2023-03-04T09:37:41.496Z,8.40
2023-03-04T09:39:45.667Z,9.10
2023-03-04T09:41:56.312Z,9.13
2023-03-04T09:43:58.228Z,9.00
2023-03-04T09:46:03.455Z,9.60
2023-03-04T09:48:06.706Z,9.33
2023-03-04T09:50:10.445Z,8.90
2023-03-04T09:52:32.124Z,8.47
2023-03-04T09:55:04.698Z,8.83
2023-03-04T09:57:31.493Z,7.80
2023-03-04T09:59:49.596Z,7.63
2023-03-04T10:01:58.148Z,8.77
2023-03-04T10:04:01.975Z,7.30
2023-03-04T10:06:09.677Z,7.77
2023-03-04T10:08:36.357Z,7.50
2023-03-04T10:10:40.835Z,8.20
2023-03-04T10:12:48.348Z,7.77
2023-03-04T10:14:59.519Z,8.27
2023-03-04T10:17:14.211Z,8.23
2023-03-04T10:19:24.807Z,8.27
2023-03-04T10:21:38.890Z,7.97
2023-03-04T10:23:41.828Z,7.97
2023-03-04T10:25:46.678Z,7.67
2023-03-04T10:27:57.993Z,7.90
2023-03-04T10:30:00.523Z,8.30
2023-03-04T10:32:02.348Z,8.57
2023-03-04T10:34:05.875Z,7.73
2023-03-04T10:36:28.926Z,8.50
2023-03-04T10:38:34.256Z,8.40
2023-03-04T10:40:41.788Z,8.73
2023-03-04T10:42:43.564Z,8.67
2023-03-04T10:44:59.908Z,8.13
2023-03-04T10:47:01.918Z,8.03
2023-03-04T10:49:03.851Z,8.17
2023-03-04T10:51:16.879Z,8.67
2023-03-04T10:53:43.026Z,8.57
2023-03-04T10:55:45.407Z,7.83
2023-03-04T10:57:58.190Z,8.60
2023-03-04T11:00:03.158Z,8.13
2023-03-04T11:02:41.283Z,8.13
2023-03-04T11:04:48.886Z,7.70
2023-03-04T11:06:52.986Z,7.47
2023-03-04T11:08:59.460Z,9.07
2023-03-04T11:11:01.778Z,10.10
2023-03-04T11:13:16.203Z,8.53
2023-03-04T11:15:27.421Z,7.53
2023-03-04T11:17:48.367Z,7.97
2023-03-04T11:19:58.012Z,7.33
2023-03-04T11:22:03.378Z,7.63
2023-03-04T11:24:28.692Z,7.40
2023-03-04T11:26:38.331Z,7.13
2023-03-04T11:29:01.611Z,7.47
2023-03-04T11:31:16.720Z,6.83
2023-03-04T11:33:26.528Z,7.17
2023-03-04T11:35:38.811Z,7.30
2023-03-04T11:37:53.578Z,6.53
2023-03-04T11:40:16.199Z,6.83
2023-03-04T11:42:29.748Z,7.07
2023-03-04T11:44:31.569Z,6.53
2023-03-04T11:46:39.479Z,7.37
2023-03-04T11:48:52.920Z,7.23
2023-03-04T11:51:03.533Z,7.23
2023-03-04T11:53:19.572Z,7.13
2023-03-04T11:55:29.447Z,7.30
2023-03-04T11:57:45.613Z,6.73
2023-03-04T12:00:13.815Z,5.90
2023-03-04T12:02:17.049Z,6.20
2023-03-04T12:04:33.408Z,6.93
2023-03-04T12:06:50.518Z,6.03
2023-03-04T12:09:02.108Z,6.07
2023-03-04T12:11:12.453Z,6.20
2023-03-04T12:13:30.918Z,6.10
2023-03-04T12:15:44.187Z,5.10
2023-03-04T12:17:58.150Z,5.23
2023-03-04T12:20:27.410Z,4.77
2023-03-04T12:22:53.429Z,4.97
2023-03-04T12:25:18.558Z,4.87
2023-03-04T12:27:45.586Z,4.70
2023-03-04T12:30:14.932Z,4.90
2023-03-04T12:32:27.109Z,5.03
2023-03-04T12:34:51.683Z,4.93
2023-03-04T12:37:00.480Z,4.77
2023-03-04T12:39:19.583Z,4.20
2023-03-04T12:41:34.641Z,4.40
2023-03-04T12:43:56.483Z,4.40
2023-03-04T12:46:12.879Z,4.47
2023-03-04T12:48:33.540Z,4.60
2023-03-04T12:50:43.861Z,4.03
2023-03-04T12:52:55.771Z,3.70
2023-03-04T12:55:03.881Z,4.60
2023-03-04T12:57:14.506Z,4.00
2023-03-04T12:59:20.371Z,4.50
2023-03-04T13:01:39.639Z,4.23
2023-03-04T13:03:50.963Z,4.43
2023-03-04T13:06:02.197Z,4.00
2023-03-04T13:08:23.605Z,4.50
2023-03-04T13:10:25.545Z,4.23
2023-03-04T13:12:27.276Z,4.30
2023-03-04T13:14:31.303Z,4.27
2023-03-04T13:16:40.280Z,4.40
2023-03-04T13:18:42.132Z,4.10
2023-03-04T13:20:44.063Z,3.90
2023-03-04T13:23:11.618Z,4.03
2023-03-04T13:25:31.741Z,4.40
2023-03-04T13:27:49.998Z,37.30
2023-03-04T13:29:51.651Z,9.80
2023-03-04T13:32:00.722Z,6.23
2023-03-04T13:34:04.990Z,4.93
2023-03-04T13:36:28.541Z,4.70
2023-03-04T13:38:34.757Z,4.60
2023-03-04T13:40:37.080Z,4.30
2023-03-04T13:42:42.194Z,4.43
2023-03-04T13:44:44.898Z,4.20
2023-03-04T13:46:46.873Z,4.90
2023-03-04T13:48:51.664Z,4.53
2023-03-04T13:50:53.615Z,4.70
2023-03-04T13:53:02.059Z,5.03
2023-03-04T13:55:31.806Z,5.03
2023-03-04T13:57:37.619Z,5.03
2023-03-04T13:59:44.377Z,4.77
2023-03-04T14:01:46.449Z,5.40
2023-03-04T14:03:48.132Z,4.97
2023-03-04T14:06:10.320Z,5.27
2023-03-04T14:08:19.870Z,4.90
2023-03-04T14:10:24.573Z,4.87
2023-03-04T14:12:29.702Z,4.47
2023-03-04T14:14:53.916Z,4.63
2023-03-04T14:16:57.731Z,5.03
2023-03-04T14:19:06.292Z,4.67
2023-03-04T14:21:13.748Z,4.77
2023-03-04T14:23:27.701Z,5.10
2023-03-04T14:25:31.741Z,5.63
2023-03-04T14:27:38.023Z,5.30
2023-03-04T14:29:40.024Z,4.83
2023-03-04T14:31:41.839Z,4.87
2023-03-04T14:33:53.985Z,6.10
2023-03-04T14:35:59.064Z,5.73
2023-03-04T14:38:15.873Z,5.27
2023-03-04T14:40:24.169Z,4.97
2023-03-04T14:42:35.993Z,5.37
2023-03-04T14:44:49.902Z,4.70
2023-03-04T14:47:06.937Z,4.67
2023-03-04T14:49:17.624Z,5.20
2023-03-04T14:51:39.711Z,4.90
2023-03-04T14:53:54.832Z,4.90
2023-03-04T14:56:02.551Z,4.93
2023-03-04T14:58:08.881Z,5.13
2023-03-04T15:00:39.105Z,4.83
2023-03-04T15:02:43.229Z,5.30
2023-03-04T15:04:51.203Z,4.77
2023-03-04T15:06:56.694Z,5.23
2023-03-04T15:09:25.870Z,4.87
2023-03-04T15:11:31.604Z,5.00
2023-03-04T15:13:41.624Z,5.03
2023-03-04T15:15:46.230Z,4.97
2023-03-04T15:18:01.518Z,4.90
2023-03-04T15:20:20.644Z,5.03
2023-03-04T15:22:22.361Z,4.40
2023-03-04T15:24:24.094Z,4.57
2023-03-04T15:26:28.093Z,4.40
2023-03-04T15:28:37.960Z,4.30
2023-03-04T15:30:42.129Z,4.10
2023-03-04T15:32:43.947Z,4.80
2023-03-04T15:34:48.069Z,4.90
2023-03-04T15:36:50.891Z,4.20
2023-03-04T15:38:53.576Z,4.63
2023-03-04T15:41:00.891Z,3.90
2023-03-04T15:43:04.009Z,4.40
2023-03-04T15:45:24.999Z,3.90
2023-03-04T15:47:26.630Z,3.57
2023-03-04T15:49:29.663Z,3.30
2023-03-04T15:51:31.470Z,2.80
2023-03-04T15:53:42.058Z,3.10
2023-03-04T15:55:45.588Z,2.73
2023-03-04T15:57:52.452Z,2.40
2023-03-04T15:59:54.276Z,2.60
2023-03-04T16:01:55.993Z,2.80
2023-03-04T16:03:57.711Z,2.43
2023-03-04T16:06:02.782Z,2.97
2023-03-04T16:08:04.713Z,2.40
2023-03-04T16:10:26.042Z,2.73
2023-03-04T16:12:28.341Z,2.73
2023-03-04T16:14:30.104Z,2.80
2023-03-04T16:16:32.223Z,3.03
2023-03-04T16:18:33.844Z,2.67
2023-03-04T16:20:36.640Z,2.90
2023-03-04T16:22:39.040Z,2.40
2023-03-04T16:24:41.070Z,2.93
2023-03-04T16:26:42.763Z,2.73
2023-03-04T16:28:44.563Z,2.47
2023-03-04T16:30:46.367Z,2.50
2023-03-04T16:32:48.062Z,2.33
2023-03-04T16:34:53.209Z,2.67
2023-03-04T16:36:55.056Z,2.60
2023-03-04T16:39:02.872Z,2.87
2023-03-04T16:41:12.363Z,3.50
2023-03-04T16:43:16.531Z,3.00
2023-03-04T16:45:24.638Z,3.90
2023-03-04T16:47:28.734Z,5.33
2023-03-04T16:49:33.838Z,3.50
2023-03-04T16:51:43.312Z,3.20
2023-03-04T16:53:48.559Z,3.27
2023-03-04T16:55:52.765Z,2.70
2023-03-04T16:57:55.596Z,3.00
2023-03-04T16:59:57.679Z,3.20
2023-03-04T17:01:59.527Z,3.13
2023-03-04T17:04:03.754Z,3.30
2023-03-04T17:06:05.795Z,3.20
2023-03-04T17:08:07.450Z,3.20
2023-03-04T17:10:10.040Z,3.43
2023-03-04T17:12:12.729Z,4.50
2023-03-04T17:14:14.743Z,3.53
2023-03-04T17:16:17.366Z,3.30
2023-03-04T17:18:19.097Z,3.93
2023-03-04T17:20:20.907Z,4.23
2023-03-04T17:22:23.729Z,5.53
2023-03-04T17:24:25.959Z,4.57
2023-03-04T17:26:28.888Z,3.87
2023-03-04T17:28:31.387Z,3.67
2023-03-04T17:30:33.213Z,3.77
2023-03-04T17:32:35.157Z,4.03
2023-03-04T17:34:39.469Z,4.60
2023-03-04T17:36:41.551Z,6.10
2023-03-04T17:38:44.415Z,5.97
2023-03-04T17:40:46.340Z,5.63
2023-03-04T17:42:48.040Z,5.67
2023-03-04T17:44:52.145Z,4.63
2023-03-04T17:46:57.516Z,4.10
2023-03-04T17:48:59.764Z,3.97
2023-03-04T17:51:01.987Z,3.73
2023-03-04T17:53:03.680Z,4.10
2023-03-04T17:55:05.980Z,3.90
2023-03-04T17:57:09.895Z,4.27
2023-03-04T17:59:14.522Z,4.47
2023-03-04T18:01:20.522Z,4.13
2023-03-04T18:03:22.231Z,4.33
2023-03-04T18:05:24.036Z,5.00
2023-03-04T18:07:25.730Z,5.17
2023-03-04T18:09:27.564Z,4.90
2023-03-04T18:11:32.042Z,4.73
2023-03-04T18:13:33.691Z,4.53
2023-03-04T18:15:35.511Z,4.30
2023-03-04T18:17:37.258Z,4.73
2023-03-04T18:19:39.044Z,4.17
2023-03-04T18:21:43.734Z,4.47
2023-03-04T18:23:45.731Z,4.33
2023-03-04T18:25:47.452Z,4.13
2023-03-04T18:27:51.676Z,3.57
2023-03-04T18:29:53.525Z,3.90
2023-03-04T18:31:55.194Z,4.83
2023-03-04T18:33:56.976Z,4.30
2023-03-04T18:36:04.454Z,4.17
2023-03-04T18:38:06.188Z,8.27
2023-03-04T18:40:09.109Z,5.93
2023-03-04T18:42:10.791Z,6.53
2023-03-04T18:44:12.597Z,6.17
2023-03-04T18:46:17.329Z,5.37
2023-03-04T18:48:19.249Z,5.53
2023-03-04T18:50:21.958Z,4.43
2023-03-04T18:52:23.852Z,8.30
2023-03-04T18:54:25.599Z,7.03
2023-03-04T18:56:38.292Z,6.37
2023-03-04T18:58:41.164Z,3.93
2023-03-04T19:00:43.021Z,4.17
2023-03-04T19:02:52.501Z,4.00
2023-03-04T19:04:58.492Z,3.90
2023-03-04T19:07:00.309Z,4.00
2023-03-04T19:09:02.104Z,4.10
2023-03-04T19:11:06.854Z,3.33
2023-03-04T19:13:11.013Z,3.90
2023-03-04T19:15:14.181Z,3.83
2023-03-04T19:17:18.055Z,4.13
2023-03-04T19:19:23.035Z,3.80
2023-03-04T19:21:24.733Z,3.70
2023-03-04T19:23:27.077Z,3.57
2023-03-04T19:25:28.846Z,3.70
2023-03-04T19:27:33.045Z,4.23
2023-03-04T19:29:34.957Z,4.17
2023-03-04T19:31:40.734Z,3.90
2023-03-04T19:33:45.389Z,4.20
2023-03-04T19:35:49.668Z,5.27
2023-03-04T19:37:51.377Z,8.43
2023-03-04T19:39:55.670Z,4.77
2023-03-04T19:41:57.360Z,3.90
2023-03-04T19:43:59.161Z,4.27
2023-03-04T19:46:02.985Z,8.63
2023-03-04T19:48:07.264Z,5.90
2023-03-04T19:50:11.173Z,7.87
2023-03-04T19:52:15.087Z,27.73
2023-03-04T19:54:19.201Z,34.30
2023-03-04T19:56:25.090Z,11.47
2023-03-04T19:58:30.629Z,5.70
2023-03-04T20:00:32.481Z,3.83
2023-03-04T20:02:34.284Z,9.07
2023-03-04T20:04:38.531Z,8.80
2023-03-04T20:06:45.322Z,10.23
2023-03-04T20:08:47.125Z,9.17
2023-03-04T20:10:48.822Z,9.63
2023-03-04T20:12:52.688Z,7.07
2023-03-04T20:14:54.419Z,8.70
2023-03-04T20:17:01.441Z,4.20
2023-03-04T20:19:03.503Z,3.80
2023-03-04T20:21:06.115Z,4.60
2023-03-04T20:23:09.271Z,3.97
2023-03-04T20:25:10.980Z,4.20
2023-03-04T20:27:15.718Z,4.73
2023-03-04T20:29:18.145Z,9.77
2023-03-04T20:31:21.278Z,6.17
2023-03-04T20:33:25.329Z,5.10
2023-03-04T20:35:27.102Z,4.70
2023-03-04T20:37:28.828Z,10.00
2023-03-04T20:39:30.517Z,6.57
2023-03-04T20:41:33.080Z,5.53
2023-03-04T20:43:35.136Z,7.63
2023-03-04T20:45:37.227Z,8.33
2023-03-04T20:47:42.137Z,8.23
2023-03-04T20:49:44.540Z,7.37
2023-03-04T20:51:46.301Z,6.43
2023-03-04T20:53:49.007Z,6.47
2023-03-04T20:55:50.679Z,8.10
2023-03-04T20:57:52.360Z,9.87
2023-03-04T20:59:54.141Z,7.53
2023-03-04T21:01:55.948Z,6.97
2023-03-04T21:04:00.850Z,10.43
2023-03-04T21:06:04.326Z,7.90
2023-03-04T21:08:08.652Z,7.00
2023-03-04T21:10:10.642Z,7.17
2023-03-04T21:12:12.385Z,5.97
2023-03-04T21:14:19.202Z,6.73
2023-03-04T21:16:20.980Z,6.50
2023-03-04T21:18:23.435Z,6.80
2023-03-04T21:20:25.203Z,6.23
2023-03-04T21:22:27.180Z,7.07
2023-03-04T21:24:32.210Z,6.13
2023-03-04T21:26:33.847Z,6.83
2023-03-04T21:28:37.848Z,6.30
2023-03-04T21:30:39.559Z,6.40
2023-03-04T21:32:41.526Z,7.10
2023-03-04T21:34:46.572Z,7.23
2023-03-04T21:36:51.319Z,6.47
2023-03-04T21:38:56.356Z,6.97
2023-03-04T21:40:58.113Z,6.67
2023-03-04T21:42:59.877Z,6.57
2023-03-04T21:45:01.602Z,6.57
2023-03-04T21:47:03.472Z,6.87
2023-03-04T21:49:06.052Z,6.67
2023-03-04T21:51:09.426Z,7.30
2023-03-04T21:53:11.078Z,7.10
2023-03-04T21:55:12.802Z,7.17
2023-03-04T21:57:17.095Z,7.60
2023-03-04T21:59:19.000Z,7.40
2023-03-04T22:01:21.882Z,8.13
2023-03-04T22:03:23.655Z,7.87
2023-03-04T22:05:25.408Z,8.50
2023-03-04T22:07:27.266Z,8.10
2023-03-04T22:09:28.993Z,8.20
2023-03-04T22:11:31.443Z,8.60
2023-03-04T22:13:35.996Z,8.30
2023-03-04T22:15:39.545Z,9.13
2023-03-04T22:17:44.789Z,9.17
2023-03-04T22:19:46.541Z,8.70
2023-03-04T22:21:48.290Z,9.23
2023-03-04T22:23:52.230Z,9.10
2023-03-04T22:25:54.079Z,9.33
2023-03-04T22:27:55.771Z,9.33
2023-03-04T22:29:57.536Z,9.77
2023-03-04T22:31:59.319Z,9.90
2023-03-04T22:34:13.265Z,10.33
2023-03-04T22:36:15.003Z,9.73
2023-03-04T22:38:16.703Z,10.20
2023-03-04T22:40:18.566Z,10.47
2023-03-04T22:42:20.355Z,10.80
2023-03-04T22:44:22.063Z,10.67
2023-03-04T22:46:26.596Z,11.50
2023-03-04T22:48:31.223Z,11.43
2023-03-04T22:50:35.012Z,10.80
2023-03-04T22:52:36.678Z,11.23
2023-03-04T22:54:38.408Z,10.60
2023-03-04T22:56:40.268Z,11.53
2023-03-04T22:58:45.641Z,11.87
2023-03-04T23:00:47.376Z,12.10
2023-03-04T23:02:49.866Z,11.23
2023-03-04T23:04:51.583Z,11.70
2023-03-04T23:06:53.288Z,12.13
2023-03-04T23:08:54.998Z,11.50
2023-03-04T23:10:56.733Z,11.67
2023-03-04T23:12:59.414Z,12.00
2023-03-04T23:15:01.316Z,12.37
2023-03-04T23:17:03.223Z,11.93
2023-03-04T23:19:06.062Z,11.53
2023-03-04T23:21:09.834Z,12.50
2023-03-04T23:23:14.563Z,11.70
2023-03-04T23:25:17.029Z,12.10
2023-03-04T23:27:20.859Z,12.87
2023-03-04T23:29:22.544Z,13.23
2023-03-04T23:31:25.604Z,13.13
2023-03-04T23:33:29.964Z,12.50
2023-03-04T23:35:31.778Z,13.03
2023-03-04T23:37:33.551Z,13.20
2023-03-04T23:39:35.236Z,12.23
2023-03-04T23:41:36.964Z,12.07
2023-03-04T23:43:38.613Z,12.57
2023-03-04T23:45:40.411Z,13.00
2023-03-04T23:47:44.656Z,13.63
2023-03-04T23:49:53.816Z,12.43
2023-03-04T23:51:55.784Z,12.47
2023-03-04T23:53:58.364Z,12.30
2023-03-04T23:56:00.558Z,11.77
2023-03-04T23:58:04.601Z,12.40
